Gokceada 1 — TCSZ8 — position and weather

sailwx.info

Track history (hours):
 
Tides and Currents Weather Stations Pressure Air Temp Water Temp Dewpoint Dewpoint Depression Visibility Wind Speed Wind Dir Waves Ship Positions

Gokceada 1

Last reported at 2018-Feb-22 16:54 UTC. Time now 2018-Feb-22 22:51 UTC.
Position N 40°13' E 026°02'.

Length 84 m; draft 4.1 m.

MMSI: 271001031.

Date/timePositionNaut miles runAvg speedWind from/ knotsBaromVisibWave heightAir tempDewpointWater temp
2018-Feb-22 16:54N 40°13' E 026°02'4 2.1
2018-Feb-22 14:46N 40°13' E 026°08'1 0.2
2018-Feb-22 10:50N 40°13' E 026°09'411.7
2018-Feb-22 10:27N 40°14' E 026°03'2 0.9
2018-Feb-22 08:09N 40°14' E 026°00'212.5
2018-Feb-22 07:58N 40°14' E 026°03'7 2.3
2018-Feb-22 05:03N 40°13' E 026°12'311.6
2018-Feb-22 04:46N 40°13' E 026°08'311.3
2018-Feb-22 04:29N 40°13' E 026°04'3 0.2
2018-Feb-21 17:01N 40°15' E 026°00'013.2
2018-Feb-21 17:00N 40°15' E 026°01'6 2.8
2018-Feb-21 14:50N 40°13' E 026°09'411.3
2018-Feb-21 14:29N 40°14' E 026°04'3 2.1
2018-Feb-21 13:05N 40°14' E 025°60'112.8
2018-Feb-21 13:00N 40°14' E 026°01'6 2.6
2018-Feb-21 10:49N 40°13' E 026°09'411.7
2018-Feb-21 10:30N 40°14' E 026°04'3 1.0
2018-Feb-21 07:21N 40°15' E 025°60'8 3.4
2018-Feb-21 04:58N 40°13' E 026°10'611.9
2018-Feb-21 04:29N 40°13' E 026°03'3 0.2
2018-Feb-20 17:07N 40°14' E 025°59'212.9
2018-Feb-20 16:56N 40°15' E 026°03'4 1.7
2018-Feb-20 14:42N 40°13' E 026°07'5 2.8
2018-Feb-20 13:02N 40°15' E 026°01'6 2.5
2018-Feb-20 10:48N 40°14' E 026°08'411.6
2018-Feb-20 10:29N 40°14' E 026°04'3 0.9
2018-Feb-20 07:12N 40°15' E 025°60'9 4.3
2018-Feb-20 05:05N 40°12' E 026°11'312.0
2018-Feb-20 04:51N 40°13' E 026°08'411.6
2018-Feb-20 04:29N 40°13' E 026°03'2 0.2
2018-Feb-19 17:01N 40°15' E 026°01'113.0
2018-Feb-19 16:59N 40°15' E 026°01'3 1.3
2018-Feb-19 14:36N 40°13' E 026°05'111.1
2018-Feb-19 14:30N 40°13' E 026°03'2 1.6
2018-Feb-19 13:04N 40°14' E 026°01'113.4
2018-Feb-19 12:59N 40°14' E 026°02'6 2.8
2018-Feb-19 10:54N 40°12' E 026°09'511.3
2018-Feb-19 10:30N 40°13' E 026°03'3 0.8
2018-Feb-19 07:03N 40°14' E 026°00'113.1
2018-Feb-19 07:00N 40°14' E 026°01'8 4.3
2018-Feb-19 05:04N 40°12' E 026°11'212.1
2018-Feb-19 04:55N 40°12' E 026°09'511.6
2018-Feb-19 04:30N 40°13' E 026°03'2 0.2
2018-Feb-18 18:03N 40°14' E 025°60'112.3
2018-Feb-18 18:00N 40°14' E 026°01'9 4.4
2018-Feb-18 16:05N 40°12' E 026°11'212.2
2018-Feb-18 15:55N 40°12' E 026°09'511.9
2018-Feb-18 15:30N 40°13' E 026°02'0 0.1
2018-Feb-18 12:54N 40°14' E 026°02'5 2.4
2018-Feb-18 10:49N 40°12' E 026°09'6 1.7
2018-Feb-18 07:02N 40°14' E 026°00'012.6
2018-Feb-18 07:00N 40°14' E 026°01'8 3.9
2018-Feb-18 04:59N 40°12' E 026°11'612.3
2018-Feb-18 04:30N 40°13' E 026°03'2 0.2
2018-Feb-17 17:00N 40°14' E 026°01'4 1.8
2018-Feb-17 14:39N 40°13' E 026°06'212.3
2018-Feb-17 14:27N 40°13' E 026°03'2 1.2
2018-Feb-17 12:59N 40°14' E 026°01'5 2.3
2018-Feb-17 10:47N 40°13' E 026°07'5 1.4
2018-Feb-17 07:12N 40°14' E 026°01'212.7
2018-Feb-17 07:00N 40°14' E 026°04'6 3.0
2018-Feb-17 05:00N 40°12' E 026°11'612.1
2018-Feb-17 04:30N 40°13' E 026°04'3 0.3
2018-Feb-16 18:13N 40°14' E 025°60'6 2.7
2018-Feb-16 15:50N 40°13' E 026°08'2 0.4
2018-Feb-16 10:41N 40°13' E 026°05'211.3
2018-Feb-16 10:30N 40°13' E 026°03'4 0.7
2018-Feb-16 04:55N 40°12' E 026°08'410.3
2018-Feb-16 04:30N 40°13' E 026°02'4 0.3
2018-Feb-15 15:02N 40°13' E 026°07'111.0
2018-Feb-15 14:57N 40°13' E 026°06'4 2.2
2018-Feb-15 13:04N 40°14' E 026°01'113.0
2018-Feb-15 12:57N 40°15' E 026°02'5 2.6
2018-Feb-15 10:51N 40°12' E 026°09'411.5
2018-Feb-15 10:30N 40°13' E 026°04'3 1.2
2018-Feb-15 08:04N 40°14' E 026°00'112.2
2018-Feb-15 08:00N 40°14' E 026°01'612.4
2018-Feb-15 07:30N 40°13' E 026°09'1 0.4
2018-Feb-15 04:47N 40°13' E 026°08'311.6
2018-Feb-15 04:30N 40°13' E 026°04'1 0.1
2018-Feb-14 16:53N 40°12' E 026°04'6 0.6
2018-Feb-14 07:06N 40°11' E 026°11'213.7
2018-Feb-14 06:59N 40°10' E 026°09'5 9.6
2018-Feb-14 06:29N 40°12' E 026°04'3 0.2
2018-Feb-13 17:00N 40°14' E 026°01'7 3.6
2018-Feb-13 14:55N 40°12' E 026°11'512.2
2018-Feb-13 14:30N 40°13' E 026°04'2 1.2
2018-Feb-13 13:02N 40°13' E 026°02'111.9
2018-Feb-13 12:59N 40°13' E 026°03'1 0.2
2018-Feb-13 07:09N 40°14' E 026°01'212.1
2018-Feb-13 06:59N 40°14' E 026°03'4 1.7
2018-Feb-13 04:45N 40°13' E 026°08'312.4
2018-Feb-13 04:30N 40°13' E 026°04'2 0.2
2018-Feb-12 17:01N 40°14' E 026°02'  
Track history (hours):
 
Tides and Currents Weather Stations Pressure Air Temp Water Temp Dewpoint Dewpoint Depression Visibility Wind Speed Wind Dir Waves Ship Positions

Gokceada 1

Last reported at 2018-Feb-22 16:54 UTC. Time now 2018-Feb-22 22:51 UTC.
Position N 40°13' E 026°02'.

Length 84 m; draft 4.1 m.

MMSI: 271001031.

Date/timePositionNaut miles runAvg speedWind from/ knotsBaromVisibWave heightAir tempDewpointWater temp
2018-Feb-22 16:54N 40°13' E 026°02'4 2.1
2018-Feb-22 14:46N 40°13' E 026°08'1 0.2
2018-Feb-22 10:50N 40°13' E 026°09'411.7
2018-Feb-22 10:27N 40°14' E 026°03'2 0.9
2018-Feb-22 08:09N 40°14' E 026°00'212.5
2018-Feb-22 07:58N 40°14' E 026°03'7 2.3
2018-Feb-22 05:03N 40°13' E 026°12'311.6
2018-Feb-22 04:46N 40°13' E 026°08'311.3
2018-Feb-22 04:29N 40°13' E 026°04'3 0.2
2018-Feb-21 17:01N 40°15' E 026°00'013.2
2018-Feb-21 17:00N 40°15' E 026°01'6 2.8
2018-Feb-21 14:50N 40°13' E 026°09'411.3
2018-Feb-21 14:29N 40°14' E 026°04'3 2.1
2018-Feb-21 13:05N 40°14' E 025°60'112.8
2018-Feb-21 13:00N 40°14' E 026°01'6 2.6
2018-Feb-21 10:49N 40°13' E 026°09'411.7
2018-Feb-21 10:30N 40°14' E 026°04'3 1.0
2018-Feb-21 07:21N 40°15' E 025°60'8 3.4
2018-Feb-21 04:58N 40°13' E 026°10'611.9
2018-Feb-21 04:29N 40°13' E 026°03'3 0.2
2018-Feb-20 17:07N 40°14' E 025°59'212.9
2018-Feb-20 16:56N 40°15' E 026°03'4 1.7
2018-Feb-20 14:42N 40°13' E 026°07'5 2.8
2018-Feb-20 13:02N 40°15' E 026°01'6 2.5
2018-Feb-20 10:48N 40°14' E 026°08'411.6
2018-Feb-20 10:29N 40°14' E 026°04'3 0.9
2018-Feb-20 07:12N 40°15' E 025°60'9 4.3
2018-Feb-20 05:05N 40°12' E 026°11'312.0
2018-Feb-20 04:51N 40°13' E 026°08'411.6
2018-Feb-20 04:29N 40°13' E 026°03'2 0.2
2018-Feb-19 17:01N 40°15' E 026°01'113.0
2018-Feb-19 16:59N 40°15' E 026°01'3 1.3
2018-Feb-19 14:36N 40°13' E 026°05'111.1
2018-Feb-19 14:30N 40°13' E 026°03'2 1.6
2018-Feb-19 13:04N 40°14' E 026°01'113.4
2018-Feb-19 12:59N 40°14' E 026°02'6 2.8
2018-Feb-19 10:54N 40°12' E 026°09'511.3
2018-Feb-19 10:30N 40°13' E 026°03'3 0.8
2018-Feb-19 07:03N 40°14' E 026°00'113.1
2018-Feb-19 07:00N 40°14' E 026°01'8 4.3
2018-Feb-19 05:04N 40°12' E 026°11'212.1
2018-Feb-19 04:55N 40°12' E 026°09'511.6
2018-Feb-19 04:30N 40°13' E 026°03'2 0.2
2018-Feb-18 18:03N 40°14' E 025°60'112.3
2018-Feb-18 18:00N 40°14' E 026°01'9 4.4
2018-Feb-18 16:05N 40°12' E 026°11'212.2
2018-Feb-18 15:55N 40°12' E 026°09'511.9
2018-Feb-18 15:30N 40°13' E 026°02'0 0.1
2018-Feb-18 12:54N 40°14' E 026°02'5 2.4
2018-Feb-18 10:49N 40°12' E 026°09'6 1.7
2018-Feb-18 07:02N 40°14' E 026°00'012.6
2018-Feb-18 07:00N 40°14' E 026°01'8 3.9
2018-Feb-18 04:59N 40°12' E 026°11'612.3
2018-Feb-18 04:30N 40°13' E 026°03'2 0.2
2018-Feb-17 17:00N 40°14' E 026°01'4 1.8
2018-Feb-17 14:39N 40°13' E 026°06'212.3
2018-Feb-17 14:27N 40°13' E 026°03'2 1.2
2018-Feb-17 12:59N 40°14' E 026°01'5 2.3
2018-Feb-17 10:47N 40°13' E 026°07'5 1.4
2018-Feb-17 07:12N 40°14' E 026°01'212.7
2018-Feb-17 07:00N 40°14' E 026°04'6 3.0
2018-Feb-17 05:00N 40°12' E 026°11'612.1
2018-Feb-17 04:30N 40°13' E 026°04'3 0.3
2018-Feb-16 18:13N 40°14' E 025°60'6 2.7
2018-Feb-16 15:50N 40°13' E 026°08'2 0.4
2018-Feb-16 10:41N 40°13' E 026°05'211.3
2018-Feb-16 10:30N 40°13' E 026°03'4 0.7
2018-Feb-16 04:55N 40°12' E 026°08'410.3
2018-Feb-16 04:30N 40°13' E 026°02'4 0.3
2018-Feb-15 15:02N 40°13' E 026°07'111.0
2018-Feb-15 14:57N 40°13' E 026°06'4 2.2
2018-Feb-15 13:04N 40°14' E 026°01'113.0
2018-Feb-15 12:57N 40°15' E 026°02'5 2.6
2018-Feb-15 10:51N 40°12' E 026°09'411.5
2018-Feb-15 10:30N 40°13' E 026°04'3 1.2
2018-Feb-15 08:04N 40°14' E 026°00'112.2
2018-Feb-15 08:00N 40°14' E 026°01'612.4
2018-Feb-15 07:30N 40°13' E 026°09'1 0.4
2018-Feb-15 04:47N 40°13' E 026°08'311.6
2018-Feb-15 04:30N 40°13' E 026°04'1 0.1
2018-Feb-14 16:53N 40°12' E 026°04'6 0.6
2018-Feb-14 07:06N 40°11' E 026°11'213.7
2018-Feb-14 06:59N 40°10' E 026°09'5 9.6
2018-Feb-14 06:29N 40°12' E 026°04'3 0.2
2018-Feb-13 17:00N 40°14' E 026°01'7 3.6
2018-Feb-13 14:55N 40°12' E 026°11'512.2
2018-Feb-13 14:30N 40°13' E 026°04'2 1.2
2018-Feb-13 13:02N 40°13' E 026°02'111.9
2018-Feb-13 12:59N 40°13' E 026°03'1 0.2
2018-Feb-13 07:09N 40°14' E 026°01'212.1
2018-Feb-13 06:59N 40°14' E 026°03'4 1.7
2018-Feb-13 04:45N 40°13' E 026°08'312.4
2018-Feb-13 04:30N 40°13' E 026°04'2 0.2
2018-Feb-12 17:01N 40°14' E 026°02'  

Dump ship's entire track history